sensor_id;sensor_type;location;lat;lon;timestamp;temperature;humidity
23147;DHT22;11742;53.532;-1.478;2023-12-22T00:00:57;12.50;99.90
23147;DHT22;11742;53.532;-1.478;2023-12-22T00:03:44;12.50;99.90
23147;DHT22;11742;53.532;-1.478;2023-12-22T00:06:34;12.50;99.90
23147;DHT22;11742;53.532;-1.478;2023-12-22T00:09:18;12.50;99.90
23147;DHT22;11742;53.532;-1.478;2023-12-22T00:12:04;12.50;99.90
23147;DHT22;11742;53.532;-1.478;2023-12-22T00:14:48;12.50;99.90
23147;DHT22;11742;53.532;-1.478;2023-12-22T00:17:32;12.50;99.90
23147;DHT22;11742;53.532;-1.478;2023-12-22T00:20:17;12.50;99.90
23147;DHT22;11742;53.532;-1.478;2023-12-22T00:23:01;12.50;99.90
23147;DHT22;11742;53.532;-1.478;2023-12-22T00:25:46;12.50;99.90
23147;DHT22;11742;53.532;-1.478;2023-12-22T00:28:30;12.50;99.90
23147;DHT22;11742;53.532;-1.478;2023-12-22T00:31:15;12.50;99.90
23147;DHT22;11742;53.532;-1.478;2023-12-22T00:34:00;12.40;99.90
23147;DHT22;11742;53.532;-1.478;2023-12-22T00:36:45;12.40;99.90
23147;DHT22;11742;53.532;-1.478;2023-12-22T00:39:29;12.40;99.90
23147;DHT22;11742;53.532;-1.478;2023-12-22T00:42:13;12.40;99.90
23147;DHT22;11742;53.532;-1.478;2023-12-22T00:44:57;12.40;99.90
23147;DHT22;11742;53.532;-1.478;2023-12-22T00:47:42;12.40;99.90
23147;DHT22;11742;53.532;-1.478;2023-12-22T00:50:26;12.40;99.90
23147;DHT22;11742;53.532;-1.478;2023-12-22T00:53:10;12.40;99.90
23147;DHT22;11742;53.532;-1.478;2023-12-22T00:55:54;12.40;99.90
23147;DHT22;11742;53.532;-1.478;2023-12-22T00:58:38;12.40;99.90
23147;DHT22;11742;53.532;-1.478;2023-12-22T01:01:22;12.40;99.90
23147;DHT22;11742;53.532;-1.478;2023-12-22T01:04:07;12.40;99.90
23147;DHT22;11742;53.532;-1.478;2023-12-22T01:06:52;12.30;99.90
23147;DHT22;11742;53.532;-1.478;2023-12-22T01:09:37;12.30;99.90
23147;DHT22;11742;53.532;-1.478;2023-12-22T01:12:21;12.40;99.90
23147;DHT22;11742;53.532;-1.478;2023-12-22T01:15:06;12.30;99.90
23147;DHT22;11742;53.532;-1.478;2023-12-22T01:17:51;12.30;99.90
23147;DHT22;11742;53.532;-1.478;2023-12-22T01:20:35;12.30;99.90
23147;DHT22;11742;53.532;-1.478;2023-12-22T01:23:19;12.30;99.90
23147;DHT22;11742;53.532;-1.478;2023-12-22T01:26:03;12.30;99.90
23147;DHT22;11742;53.532;-1.478;2023-12-22T01:28:48;12.30;99.90
23147;DHT22;11742;53.532;-1.478;2023-12-22T01:31:32;12.20;99.90
23147;DHT22;11742;53.532;-1.478;2023-12-22T01:34:17;12.30;99.90
23147;DHT22;11742;53.532;-1.478;2023-12-22T01:37:01;12.20;99.90
23147;DHT22;11742;53.532;-1.478;2023-12-22T01:39:45;12.20;99.90
23147;DHT22;11742;53.532;-1.478;2023-12-22T01:42:30;12.20;99.90
23147;DHT22;11742;53.532;-1.478;2023-12-22T01:45:15;12.20;99.90
23147;DHT22;11742;53.532;-1.478;2023-12-22T01:48:00;12.20;99.90
23147;DHT22;11742;53.532;-1.478;2023-12-22T01:50:44;12.20;99.90
23147;DHT22;11742;53.532;-1.478;2023-12-22T01:53:30;12.20;99.90
23147;DHT22;11742;53.532;-1.478;2023-12-22T01:56:15;12.20;99.90
23147;DHT22;11742;53.532;-1.478;2023-12-22T01:59:00;12.20;99.90
23147;DHT22;11742;53.532;-1.478;2023-12-22T02:01:45;12.20;99.90
23147;DHT22;11742;53.532;-1.478;2023-12-22T02:04:31;12.20;99.90
23147;DHT22;11742;53.532;-1.478;2023-12-22T02:07:15;12.20;99.90
23147;DHT22;11742;53.532;-1.478;2023-12-22T02:10:00;12.20;99.90
23147;DHT22;11742;53.532;-1.478;2023-12-22T02:12:45;12.20;99.90
23147;DHT22;11742;53.532;-1.478;2023-12-22T02:15:30;12.20;99.90
23147;DHT22;11742;53.532;-1.478;2023-12-22T02:18:24;12.20;99.90
23147;DHT22;11742;53.532;-1.478;2023-12-22T02:21:09;12.20;99.90
23147;DHT22;11742;53.532;-1.478;2023-12-22T02:23:52;12.20;99.90
23147;DHT22;11742;53.532;-1.478;2023-12-22T02:26:42;12.20;99.90
23147;DHT22;11742;53.532;-1.478;2023-12-22T02:29:30;12.20;99.90
23147;DHT22;11742;53.532;-1.478;2023-12-22T02:32:22;12.10;99.90
23147;DHT22;11742;53.532;-1.478;2023-12-22T02:35:10;12.20;99.90
23147;DHT22;11742;53.532;-1.478;2023-12-22T02:37:57;12.20;99.90
23147;DHT22;11742;53.532;-1.478;2023-12-22T02:40:43;12.20;99.90
23147;DHT22;11742;53.532;-1.478;2023-12-22T02:43:28;12.20;99.90
23147;DHT22;11742;53.532;-1.478;2023-12-22T02:46:14;12.10;99.90
23147;DHT22;11742;53.532;-1.478;2023-12-22T02:48:59;12.10;99.90
23147;DHT22;11742;53.532;-1.478;2023-12-22T02:51:43;12.20;99.90
23147;DHT22;11742;53.532;-1.478;2023-12-22T02:54:27;12.10;99.90
23147;DHT22;11742;53.532;-1.478;2023-12-22T02:57:13;12.20;99.90
23147;DHT22;11742;53.532;-1.478;2023-12-22T02:59:58;12.10;99.90
23147;DHT22;11742;53.532;-1.478;2023-12-22T03:02:42;12.20;99.90
23147;DHT22;11742;53.532;-1.478;2023-12-22T03:05:26;12.10;99.90
23147;DHT22;11742;53.532;-1.478;2023-12-22T03:08:10;12.20;99.90
23147;DHT22;11742;53.532;-1.478;2023-12-22T03:10:54;12.20;99.90
23147;DHT22;11742;53.532;-1.478;2023-12-22T03:13:38;12.20;99.90
23147;DHT22;11742;53.532;-1.478;2023-12-22T03:16:22;12.10;99.90
23147;DHT22;11742;53.532;-1.478;2023-12-22T03:19:07;12.10;99.90
23147;DHT22;11742;53.532;-1.478;2023-12-22T03:21:51;12.10;99.90
23147;DHT22;11742;53.532;-1.478;2023-12-22T03:24:36;12.10;99.90
23147;DHT22;11742;53.532;-1.478;2023-12-22T03:27:21;12.10;99.90
23147;DHT22;11742;53.532;-1.478;2023-12-22T03:30:06;12.10;99.90
23147;DHT22;11742;53.532;-1.478;2023-12-22T03:32:50;12.10;99.90
23147;DHT22;11742;53.532;-1.478;2023-12-22T03:35:34;12.10;99.90
23147;DHT22;11742;53.532;-1.478;2023-12-22T03:38:19;12.10;99.90
23147;DHT22;11742;53.532;-1.478;2023-12-22T03:41:03;12.10;99.90
23147;DHT22;11742;53.532;-1.478;2023-12-22T03:43:48;12.10;99.90
23147;DHT22;11742;53.532;-1.478;2023-12-22T03:46:32;12.10;99.90
23147;DHT22;11742;53.532;-1.478;2023-12-22T03:49:16;12.10;99.90
23147;DHT22;11742;53.532;-1.478;2023-12-22T03:52:04;12.10;99.90
23147;DHT22;11742;53.532;-1.478;2023-12-22T03:54:48;12.10;99.90
23147;DHT22;11742;53.532;-1.478;2023-12-22T03:57:32;12.10;99.90
23147;DHT22;11742;53.532;-1.478;2023-12-22T04:00:17;12.10;99.90
23147;DHT22;11742;53.532;-1.478;2023-12-22T04:03:01;12.10;99.90
23147;DHT22;11742;53.532;-1.478;2023-12-22T04:05:46;12.10;99.90
23147;DHT22;11742;53.532;-1.478;2023-12-22T04:08:30;12.10;99.90
23147;DHT22;11742;53.532;-1.478;2023-12-22T04:11:15;12.10;99.90
23147;DHT22;11742;53.532;-1.478;2023-12-22T04:14:00;12.10;99.90
23147;DHT22;11742;53.532;-1.478;2023-12-22T04:16:44;12.10;99.90
23147;DHT22;11742;53.532;-1.478;2023-12-22T04:19:29;12.10;99.90
23147;DHT22;11742;53.532;-1.478;2023-12-22T04:22:13;12.10;99.90
23147;DHT22;11742;53.532;-1.478;2023-12-22T04:24:58;12.10;99.90
23147;DHT22;11742;53.532;-1.478;2023-12-22T04:27:42;12.10;99.90
23147;DHT22;11742;53.532;-1.478;2023-12-22T04:30:27;12.10;99.90
23147;DHT22;11742;53.532;-1.478;2023-12-22T04:33:11;12.10;99.90
23147;DHT22;11742;53.532;-1.478;2023-12-22T04:35:55;12.10;99.90
23147;DHT22;11742;53.532;-1.478;2023-12-22T04:38:41;12.10;99.90
23147;DHT22;11742;53.532;-1.478;2023-12-22T04:41:25;12.10;99.90
23147;DHT22;11742;53.532;-1.478;2023-12-22T04:44:09;12.10;99.90
23147;DHT22;11742;53.532;-1.478;2023-12-22T04:46:54;12.10;99.90
23147;DHT22;11742;53.532;-1.478;2023-12-22T04:49:38;12.10;99.90
23147;DHT22;11742;53.532;-1.478;2023-12-22T04:52:22;12.10;99.90
23147;DHT22;11742;53.532;-1.478;2023-12-22T04:55:07;12.10;99.90
23147;DHT22;11742;53.532;-1.478;2023-12-22T04:57:51;12.10;99.90
23147;DHT22;11742;53.532;-1.478;2023-12-22T05:00:35;12.10;99.90
23147;DHT22;11742;53.532;-1.478;2023-12-22T05:03:22;12.10;99.90
23147;DHT22;11742;53.532;-1.478;2023-12-22T05:06:07;12.10;99.90
23147;DHT22;11742;53.532;-1.478;2023-12-22T05:08:51;12.10;99.90
23147;DHT22;11742;53.532;-1.478;2023-12-22T05:11:36;12.10;99.90
23147;DHT22;11742;53.532;-1.478;2023-12-22T05:14:20;12.10;99.90
23147;DHT22;11742;53.532;-1.478;2023-12-22T05:17:04;12.10;99.90
23147;DHT22;11742;53.532;-1.478;2023-12-22T05:19:48;12.10;99.90
23147;DHT22;11742;53.532;-1.478;2023-12-22T05:22:33;12.10;99.90
23147;DHT22;11742;53.532;-1.478;2023-12-22T05:25:17;12.10;99.90
23147;DHT22;11742;53.532;-1.478;2023-12-22T05:28:01;12.10;99.90
23147;DHT22;11742;53.532;-1.478;2023-12-22T05:30:46;12.10;99.90
23147;DHT22;11742;53.532;-1.478;2023-12-22T05:33:31;12.10;99.90
23147;DHT22;11742;53.532;-1.478;2023-12-22T05:36:15;12.10;99.90
23147;DHT22;11742;53.532;-1.478;2023-12-22T05:38:59;12.20;99.90
23147;DHT22;11742;53.532;-1.478;2023-12-22T05:41:43;12.10;99.90
23147;DHT22;11742;53.532;-1.478;2023-12-22T05:44:27;12.10;99.90
23147;DHT22;11742;53.532;-1.478;2023-12-22T05:47:14;12.20;99.90
23147;DHT22;11742;53.532;-1.478;2023-12-22T05:49:58;12.20;99.90
23147;DHT22;11742;53.532;-1.478;2023-12-22T05:52:43;12.20;99.90
23147;DHT22;11742;53.532;-1.478;2023-12-22T05:55:30;12.10;99.90
23147;DHT22;11742;53.532;-1.478;2023-12-22T05:58:14;12.20;99.90
23147;DHT22;11742;53.532;-1.478;2023-12-22T06:00:58;12.20;99.90
23147;DHT22;11742;53.532;-1.478;2023-12-22T06:03:43;12.10;99.90
23147;DHT22;11742;53.532;-1.478;2023-12-22T06:06:27;12.10;99.90
23147;DHT22;11742;53.532;-1.478;2023-12-22T06:09:11;12.10;99.90
23147;DHT22;11742;53.532;-1.478;2023-12-22T06:11:57;12.10;99.90
23147;DHT22;11742;53.532;-1.478;2023-12-22T06:14:42;12.10;99.90
23147;DHT22;11742;53.532;-1.478;2023-12-22T06:17:26;12.10;99.90
23147;DHT22;11742;53.532;-1.478;2023-12-22T06:20:11;12.10;99.90
23147;DHT22;11742;53.532;-1.478;2023-12-22T06:22:55;12.20;99.90
23147;DHT22;11742;53.532;-1.478;2023-12-22T06:25:39;12.10;99.90
23147;DHT22;11742;53.532;-1.478;2023-12-22T06:28:23;12.10;99.90
23147;DHT22;11742;53.532;-1.478;2023-12-22T06:31:08;12.20;99.90
23147;DHT22;11742;53.532;-1.478;2023-12-22T06:33:53;12.10;99.90
23147;DHT22;11742;53.532;-1.478;2023-12-22T06:36:37;12.20;99.90
23147;DHT22;11742;53.532;-1.478;2023-12-22T06:39:21;12.20;99.90
23147;DHT22;11742;53.532;-1.478;2023-12-22T06:42:05;12.20;99.90
23147;DHT22;11742;53.532;-1.478;2023-12-22T06:44:54;12.20;99.90
23147;DHT22;11742;53.532;-1.478;2023-12-22T06:47:38;12.20;99.90
23147;DHT22;11742;53.532;-1.478;2023-12-22T06:50:23;12.20;99.90
23147;DHT22;11742;53.532;-1.478;2023-12-22T06:53:07;12.10;99.90
23147;DHT22;11742;53.532;-1.478;2023-12-22T06:55:52;12.20;99.90
23147;DHT22;11742;53.532;-1.478;2023-12-22T06:58:36;12.10;99.90
23147;DHT22;11742;53.532;-1.478;2023-12-22T07:01:22;12.20;99.90
23147;DHT22;11742;53.532;-1.478;2023-12-22T07:04:07;12.20;99.90
23147;DHT22;11742;53.532;-1.478;2023-12-22T07:06:51;12.10;99.90
23147;DHT22;11742;53.532;-1.478;2023-12-22T07:09:35;12.10;99.90
23147;DHT22;11742;53.532;-1.478;2023-12-22T07:12:20;12.20;99.90
23147;DHT22;11742;53.532;-1.478;2023-12-22T07:15:05;12.10;99.90
23147;DHT22;11742;53.532;-1.478;2023-12-22T07:17:51;12.10;99.90
23147;DHT22;11742;53.532;-1.478;2023-12-22T07:20:36;12.10;99.90
23147;DHT22;11742;53.532;-1.478;2023-12-22T07:23:20;12.10;99.90
23147;DHT22;11742;53.532;-1.478;2023-12-22T07:26:04;12.20;99.90
23147;DHT22;11742;53.532;-1.478;2023-12-22T07:28:48;12.10;99.90
23147;DHT22;11742;53.532;-1.478;2023-12-22T07:31:32;12.10;99.90
23147;DHT22;11742;53.532;-1.478;2023-12-22T07:34:17;12.20;99.90
23147;DHT22;11742;53.532;-1.478;2023-12-22T07:37:03;12.20;99.90
23147;DHT22;11742;53.532;-1.478;2023-12-22T07:39:48;12.20;99.90
23147;DHT22;11742;53.532;-1.478;2023-12-22T07:42:32;12.20;99.90
23147;DHT22;11742;53.532;-1.478;2023-12-22T07:45:16;12.20;99.90
23147;DHT22;11742;53.532;-1.478;2023-12-22T07:48:00;12.20;99.90
23147;DHT22;11742;53.532;-1.478;2023-12-22T07:50:45;12.20;99.90
23147;DHT22;11742;53.532;-1.478;2023-12-22T07:53:30;12.20;99.90
23147;DHT22;11742;53.532;-1.478;2023-12-22T07:56:14;12.20;99.90
23147;DHT22;11742;53.532;-1.478;2023-12-22T07:58:59;12.20;99.90
23147;DHT22;11742;53.532;-1.478;2023-12-22T08:01:44;12.20;99.90
23147;DHT22;11742;53.532;-1.478;2023-12-22T08:04:28;12.20;99.90
23147;DHT22;11742;53.532;-1.478;2023-12-22T08:07:12;12.20;99.90
23147;DHT22;11742;53.532;-1.478;2023-12-22T08:09:57;12.20;99.90
23147;DHT22;11742;53.532;-1.478;2023-12-22T08:12:41;12.20;99.90
23147;DHT22;11742;53.532;-1.478;2023-12-22T08:15:25;12.20;99.90
23147;DHT22;11742;53.532;-1.478;2023-12-22T08:18:09;12.20;99.90
23147;DHT22;11742;53.532;-1.478;2023-12-22T08:20:54;12.20;99.90
23147;DHT22;11742;53.532;-1.478;2023-12-22T08:23:38;12.20;99.90
23147;DHT22;11742;53.532;-1.478;2023-12-22T08:26:22;12.20;99.90
23147;DHT22;11742;53.532;-1.478;2023-12-22T08:29:06;12.20;99.90
23147;DHT22;11742;53.532;-1.478;2023-12-22T08:31:52;12.20;99.90
23147;DHT22;11742;53.532;-1.478;2023-12-22T08:34:37;12.20;99.90
23147;DHT22;11742;53.532;-1.478;2023-12-22T08:37:21;12.20;99.90
23147;DHT22;11742;53.532;-1.478;2023-12-22T08:40:05;12.20;99.90
23147;DHT22;11742;53.532;-1.478;2023-12-22T08:42:50;12.20;99.90
23147;DHT22;11742;53.532;-1.478;2023-12-22T08:45:35;12.20;99.90
23147;DHT22;11742;53.532;-1.478;2023-12-22T08:48:19;12.20;99.90
23147;DHT22;11742;53.532;-1.478;2023-12-22T08:51:04;12.20;99.90
23147;DHT22;11742;53.532;-1.478;2023-12-22T08:53:48;12.20;99.90
23147;DHT22;11742;53.532;-1.478;2023-12-22T08:56:34;12.20;99.90
23147;DHT22;11742;53.532;-1.478;2023-12-22T08:59:19;12.20;99.90
23147;DHT22;11742;53.532;-1.478;2023-12-22T09:02:04;12.20;99.90
23147;DHT22;11742;53.532;-1.478;2023-12-22T09:04:48;12.20;99.90
23147;DHT22;11742;53.532;-1.478;2023-12-22T09:07:32;12.20;99.90
23147;DHT22;11742;53.532;-1.478;2023-12-22T09:10:16;12.20;99.90
23147;DHT22;11742;53.532;-1.478;2023-12-22T09:13:00;12.20;99.90
23147;DHT22;11742;53.532;-1.478;2023-12-22T09:15:44;12.20;99.90
23147;DHT22;11742;53.532;-1.478;2023-12-22T09:18:32;12.20;99.90
23147;DHT22;11742;53.532;-1.478;2023-12-22T09:21:17;12.20;99.90
23147;DHT22;11742;53.532;-1.478;2023-12-22T09:24:01;12.20;99.90
23147;DHT22;11742;53.532;-1.478;2023-12-22T09:26:45;12.20;99.90
23147;DHT22;11742;53.532;-1.478;2023-12-22T09:29:30;12.20;99.90
23147;DHT22;11742;53.532;-1.478;2023-12-22T09:32:15;12.30;99.90
23147;DHT22;11742;53.532;-1.478;2023-12-22T09:35:01;12.20;99.90
23147;DHT22;11742;53.532;-1.478;2023-12-22T09:37:45;12.20;99.90
23147;DHT22;11742;53.532;-1.478;2023-12-22T09:40:29;12.20;99.90
23147;DHT22;11742;53.532;-1.478;2023-12-22T09:43:15;12.20;99.90
23147;DHT22;11742;53.532;-1.478;2023-12-22T09:46:00;12.20;99.90
23147;DHT22;11742;53.532;-1.478;2023-12-22T09:48:45;12.30;99.90
23147;DHT22;11742;53.532;-1.478;2023-12-22T09:51:31;12.30;99.90
23147;DHT22;11742;53.532;-1.478;2023-12-22T09:54:16;12.30;99.90
23147;DHT22;11742;53.532;-1.478;2023-12-22T09:57:02;12.30;99.90
23147;DHT22;11742;53.532;-1.478;2023-12-22T09:59:49;12.30;99.90
23147;DHT22;11742;53.532;-1.478;2023-12-22T10:02:36;12.30;99.90
23147;DHT22;11742;53.532;-1.478;2023-12-22T10:05:22;12.30;99.90
23147;DHT22;11742;53.532;-1.478;2023-12-22T10:08:08;12.30;99.90
23147;DHT22;11742;53.532;-1.478;2023-12-22T10:10:54;12.30;99.90
23147;DHT22;11742;53.532;-1.478;2023-12-22T10:13:41;12.30;99.90
23147;DHT22;11742;53.532;-1.478;2023-12-22T10:16:26;12.30;99.90
23147;DHT22;11742;53.532;-1.478;2023-12-22T10:19:11;12.30;99.90
23147;DHT22;11742;53.532;-1.478;2023-12-22T10:21:55;12.30;99.90
23147;DHT22;11742;53.532;-1.478;2023-12-22T10:24:43;12.30;99.90
23147;DHT22;11742;53.532;-1.478;2023-12-22T10:27:29;12.30;99.90
23147;DHT22;11742;53.532;-1.478;2023-12-22T10:30:14;12.30;99.90
23147;DHT22;11742;53.532;-1.478;2023-12-22T10:32:59;12.30;99.90
23147;DHT22;11742;53.532;-1.478;2023-12-22T10:35:47;12.30;99.90
23147;DHT22;11742;53.532;-1.478;2023-12-22T10:38:34;12.30;99.90
23147;DHT22;11742;53.532;-1.478;2023-12-22T10:41:19;12.30;99.90
23147;DHT22;11742;53.532;-1.478;2023-12-22T10:44:03;12.30;99.90
23147;DHT22;11742;53.532;-1.478;2023-12-22T10:46:48;12.40;99.90
23147;DHT22;11742;53.532;-1.478;2023-12-22T10:49:32;12.30;99.90
23147;DHT22;11742;53.532;-1.478;2023-12-22T10:52:18;12.30;99.90
23147;DHT22;11742;53.532;-1.478;2023-12-22T10:55:04;12.30;99.90
23147;DHT22;11742;53.532;-1.478;2023-12-22T10:57:50;12.40;99.90
23147;DHT22;11742;53.532;-1.478;2023-12-22T11:00:38;12.40;99.90
23147;DHT22;11742;53.532;-1.478;2023-12-22T11:03:23;12.40;99.90
23147;DHT22;11742;53.532;-1.478;2023-12-22T11:06:12;12.40;99.90
23147;DHT22;11742;53.532;-1.478;2023-12-22T11:09:00;12.40;99.90
23147;DHT22;11742;53.532;-1.478;2023-12-22T11:11:47;12.40;99.90
23147;DHT22;11742;53.532;-1.478;2023-12-22T11:14:34;12.40;99.90
23147;DHT22;11742;53.532;-1.478;2023-12-22T11:17:20;12.40;99.90
23147;DHT22;11742;53.532;-1.478;2023-12-22T11:20:06;12.40;99.90
23147;DHT22;11742;53.532;-1.478;2023-12-22T11:22:54;12.50;99.90
23147;DHT22;11742;53.532;-1.478;2023-12-22T11:25:39;12.50;99.90
23147;DHT22;11742;53.532;-1.478;2023-12-22T11:28:24;12.50;99.90
23147;DHT22;11742;53.532;-1.478;2023-12-22T11:31:10;12.50;99.90
23147;DHT22;11742;53.532;-1.478;2023-12-22T11:33:56;12.50;99.90
23147;DHT22;11742;53.532;-1.478;2023-12-22T11:36:43;12.50;99.90
23147;DHT22;11742;53.532;-1.478;2023-12-22T11:39:29;12.50;99.90
23147;DHT22;11742;53.532;-1.478;2023-12-22T11:42:24;12.50;99.90
23147;DHT22;11742;53.532;-1.478;2023-12-22T11:45:10;12.60;99.90
23147;DHT22;11742;53.532;-1.478;2023-12-22T11:48:10;12.60;99.90
23147;DHT22;11742;53.532;-1.478;2023-12-22T11:50:55;12.60;99.90
23147;DHT22;11742;53.532;-1.478;2023-12-22T11:53:39;12.60;99.90
23147;DHT22;11742;53.532;-1.478;2023-12-22T11:56:24;12.60;99.90
23147;DHT22;11742;53.532;-1.478;2023-12-22T11:59:08;12.60;99.90
23147;DHT22;11742;53.532;-1.478;2023-12-22T12:01:56;12.60;99.90
23147;DHT22;11742;53.532;-1.478;2023-12-22T12:04:40;12.60;99.90
23147;DHT22;11742;53.532;-1.478;2023-12-22T12:07:47;12.70;99.90
23147;DHT22;11742;53.532;-1.478;2023-12-22T12:13:22;12.70;99.90
23147;DHT22;11742;53.532;-1.478;2023-12-22T12:16:07;12.70;99.90
23147;DHT22;11742;53.532;-1.478;2023-12-22T12:18:52;12.70;99.90
23147;DHT22;11742;53.532;-1.478;2023-12-22T12:21:40;12.70;99.90
23147;DHT22;11742;53.532;-1.478;2023-12-22T12:24:25;12.70;99.90
23147;DHT22;11742;53.532;-1.478;2023-12-22T12:27:09;12.70;99.90
23147;DHT22;11742;53.532;-1.478;2023-12-22T12:29:54;12.70;99.90
23147;DHT22;11742;53.532;-1.478;2023-12-22T12:32:42;12.80;99.90
23147;DHT22;11742;53.532;-1.478;2023-12-22T12:35:29;12.80;99.90
23147;DHT22;11742;53.532;-1.478;2023-12-22T12:38:17;12.80;99.90
23147;DHT22;11742;53.532;-1.478;2023-12-22T12:41:04;12.80;99.90
23147;DHT22;11742;53.532;-1.478;2023-12-22T12:43:49;12.80;99.90
23147;DHT22;11742;53.532;-1.478;2023-12-22T12:46:39;12.80;99.90
23147;DHT22;11742;53.532;-1.478;2023-12-22T12:49:24;12.80;99.90
23147;DHT22;11742;53.532;-1.478;2023-12-22T12:52:13;12.80;99.90
23147;DHT22;11742;53.532;-1.478;2023-12-22T12:54:58;12.80;99.90
23147;DHT22;11742;53.532;-1.478;2023-12-22T12:57:44;12.80;99.90
23147;DHT22;11742;53.532;-1.478;2023-12-22T13:00:32;12.90;99.90
23147;DHT22;11742;53.532;-1.478;2023-12-22T13:03:20;12.80;99.90
23147;DHT22;11742;53.532;-1.478;2023-12-22T13:06:07;12.80;99.90
23147;DHT22;11742;53.532;-1.478;2023-12-22T13:08:52;12.90;99.90
23147;DHT22;11742;53.532;-1.478;2023-12-22T13:11:37;12.90;99.90
23147;DHT22;11742;53.532;-1.478;2023-12-22T13:14:23;12.90;99.90
23147;DHT22;11742;53.532;-1.478;2023-12-22T13:17:11;12.90;99.90
23147;DHT22;11742;53.532;-1.478;2023-12-22T13:19:55;12.90;99.90
23147;DHT22;11742;53.532;-1.478;2023-12-22T13:22:40;12.90;99.90
23147;DHT22;11742;53.532;-1.478;2023-12-22T13:25:24;12.90;99.90
23147;DHT22;11742;53.532;-1.478;2023-12-22T13:28:08;12.90;99.90
23147;DHT22;11742;53.532;-1.478;2023-12-22T13:30:53;12.90;99.90
23147;DHT22;11742;53.532;-1.478;2023-12-22T13:33:37;12.90;99.90
23147;DHT22;11742;53.532;-1.478;2023-12-22T13:36:22;12.90;99.90
23147;DHT22;11742;53.532;-1.478;2023-12-22T13:39:07;12.90;99.90
23147;DHT22;11742;53.532;-1.478;2023-12-22T13:41:51;12.90;99.90
23147;DHT22;11742;53.532;-1.478;2023-12-22T13:44:45;13.00;99.90
23147;DHT22;11742;53.532;-1.478;2023-12-22T13:47:31;12.90;99.90
23147;DHT22;11742;53.532;-1.478;2023-12-22T13:50:16;13.00;99.90
23147;DHT22;11742;53.532;-1.478;2023-12-22T13:53:08;12.90;99.90
23147;DHT22;11742;53.532;-1.478;2023-12-22T13:55:59;12.90;99.90
23147;DHT22;11742;53.532;-1.478;2023-12-22T13:58:47;13.00;99.90
23147;DHT22;11742;53.532;-1.478;2023-12-22T14:01:32;13.00;99.90
23147;DHT22;11742;53.532;-1.478;2023-12-22T14:04:16;13.00;99.90
23147;DHT22;11742;53.532;-1.478;2023-12-22T14:07:00;13.00;99.90
23147;DHT22;11742;53.532;-1.478;2023-12-22T14:09:45;13.00;99.90
23147;DHT22;11742;53.532;-1.478;2023-12-22T14:12:29;13.00;99.90
23147;DHT22;11742;53.532;-1.478;2023-12-22T14:15:13;13.00;99.90
23147;DHT22;11742;53.532;-1.478;2023-12-22T14:17:58;13.00;99.90
23147;DHT22;11742;53.532;-1.478;2023-12-22T14:20:42;13.00;99.90
23147;DHT22;11742;53.532;-1.478;2023-12-22T14:23:27;13.00;99.90
23147;DHT22;11742;53.532;-1.478;2023-12-22T14:26:11;13.00;99.90
23147;DHT22;11742;53.532;-1.478;2023-12-22T14:28:55;13.00;99.90
23147;DHT22;11742;53.532;-1.478;2023-12-22T14:31:39;13.00;99.90
23147;DHT22;11742;53.532;-1.478;2023-12-22T14:34:23;13.10;99.90
23147;DHT22;11742;53.532;-1.478;2023-12-22T14:37:08;13.10;99.90
23147;DHT22;11742;53.532;-1.478;2023-12-22T14:39:52;13.10;99.90
23147;DHT22;11742;53.532;-1.478;2023-12-22T14:42:37;13.00;99.90
23147;DHT22;11742;53.532;-1.478;2023-12-22T14:45:21;13.10;99.90
23147;DHT22;11742;53.532;-1.478;2023-12-22T14:48:06;13.10;99.90
23147;DHT22;11742;53.532;-1.478;2023-12-22T14:50:51;13.10;99.90
23147;DHT22;11742;53.532;-1.478;2023-12-22T14:53:35;13.10;99.90
23147;DHT22;11742;53.532;-1.478;2023-12-22T14:56:19;13.10;99.90
23147;DHT22;11742;53.532;-1.478;2023-12-22T14:59:03;13.10;99.90
23147;DHT22;11742;53.532;-1.478;2023-12-22T15:01:48;13.10;99.90
23147;DHT22;11742;53.532;-1.478;2023-12-22T15:04:32;13.10;99.90
23147;DHT22;11742;53.532;-1.478;2023-12-22T15:07:17;13.10;99.90
23147;DHT22;11742;53.532;-1.478;2023-12-22T15:10:03;13.10;99.90
23147;DHT22;11742;53.532;-1.478;2023-12-22T15:12:49;13.10;99.90
23147;DHT22;11742;53.532;-1.478;2023-12-22T15:15:33;13.10;99.90
23147;DHT22;11742;53.532;-1.478;2023-12-22T15:18:17;13.10;99.90
23147;DHT22;11742;53.532;-1.478;2023-12-22T15:21:01;13.10;99.90
23147;DHT22;11742;53.532;-1.478;2023-12-22T15:23:46;13.10;99.90
23147;DHT22;11742;53.532;-1.478;2023-12-22T15:26:31;13.10;99.90
23147;DHT22;11742;53.532;-1.478;2023-12-22T15:29:18;13.10;99.90
23147;DHT22;11742;53.532;-1.478;2023-12-22T15:32:02;13.10;99.90
23147;DHT22;11742;53.532;-1.478;2023-12-22T15:34:46;13.10;99.90
23147;DHT22;11742;53.532;-1.478;2023-12-22T15:37:31;13.10;99.90
23147;DHT22;11742;53.532;-1.478;2023-12-22T15:40:16;13.10;99.90
23147;DHT22;11742;53.532;-1.478;2023-12-22T15:43:00;13.10;99.90
23147;DHT22;11742;53.532;-1.478;2023-12-22T15:45:44;13.10;99.90
23147;DHT22;11742;53.532;-1.478;2023-12-22T15:48:28;13.10;99.90
23147;DHT22;11742;53.532;-1.478;2023-12-22T15:51:13;13.10;99.90
23147;DHT22;11742;53.532;-1.478;2023-12-22T15:53:58;13.10;99.90
23147;DHT22;11742;53.532;-1.478;2023-12-22T15:56:42;13.10;99.90
23147;DHT22;11742;53.532;-1.478;2023-12-22T15:59:26;13.10;99.90
23147;DHT22;11742;53.532;-1.478;2023-12-22T16:02:10;13.10;99.90
23147;DHT22;11742;53.532;-1.478;2023-12-22T16:04:54;13.10;99.90
23147;DHT22;11742;53.532;-1.478;2023-12-22T16:07:38;13.10;99.90
23147;DHT22;11742;53.532;-1.478;2023-12-22T16:10:25;13.10;99.90
23147;DHT22;11742;53.532;-1.478;2023-12-22T16:13:11;13.10;99.90
23147;DHT22;11742;53.532;-1.478;2023-12-22T16:15:57;13.10;99.90
23147;DHT22;11742;53.532;-1.478;2023-12-22T16:18:42;13.10;99.90
23147;DHT22;11742;53.532;-1.478;2023-12-22T16:21:26;13.00;99.90
23147;DHT22;11742;53.532;-1.478;2023-12-22T16:24:10;13.10;99.90
23147;DHT22;11742;53.532;-1.478;2023-12-22T16:26:54;13.00;99.90
23147;DHT22;11742;53.532;-1.478;2023-12-22T16:29:39;13.10;99.90
23147;DHT22;11742;53.532;-1.478;2023-12-22T16:32:24;13.10;99.90
23147;DHT22;11742;53.532;-1.478;2023-12-22T16:35:08;13.10;99.90
23147;DHT22;11742;53.532;-1.478;2023-12-22T16:37:52;13.10;99.90
23147;DHT22;11742;53.532;-1.478;2023-12-22T16:40:37;13.00;99.90
23147;DHT22;11742;53.532;-1.478;2023-12-22T16:43:21;13.10;99.90
23147;DHT22;11742;53.532;-1.478;2023-12-22T16:46:07;13.10;99.90
23147;DHT22;11742;53.532;-1.478;2023-12-22T16:48:52;13.10;99.90
23147;DHT22;11742;53.532;-1.478;2023-12-22T16:51:36;13.00;99.90
23147;DHT22;11742;53.532;-1.478;2023-12-22T16:54:20;13.00;99.90
23147;DHT22;11742;53.532;-1.478;2023-12-22T16:57:04;13.10;99.90
23147;DHT22;11742;53.532;-1.478;2023-12-22T16:59:49;13.10;99.90
23147;DHT22;11742;53.532;-1.478;2023-12-22T17:02:34;13.10;99.90
23147;DHT22;11742;53.532;-1.478;2023-12-22T17:05:19;13.10;99.90
23147;DHT22;11742;53.532;-1.478;2023-12-22T17:08:04;13.10;99.90